createdAt,value
2022-10-04T00:00:29.561Z,47.54
2022-10-04T00:01:08.836Z,47.53
2022-10-04T00:01:47.586Z,47.15
2022-10-04T00:02:26.443Z,47.27
2022-10-04T00:03:05.416Z,47.15
2022-10-04T00:03:42.002Z,47.49
2022-10-04T00:04:20.455Z,47.50
2022-10-04T00:04:58.143Z,47.57
2022-10-04T00:05:31.207Z,47.57
2022-10-04T00:06:06.900Z,47.66
2022-10-04T00:06:45.844Z,47.66
2022-10-04T00:07:24.607Z,47.65
2022-10-04T00:07:59.374Z,47.35
2022-10-04T00:08:37.045Z,47.61
2022-10-04T00:09:15.364Z,47.60
2022-10-04T00:09:49.999Z,47.50
2022-10-04T00:10:25.099Z,47.20
2022-10-04T00:11:08.361Z,47.62
2022-10-04T00:11:44.412Z,47.37
2022-10-04T00:12:19.091Z,47.40
2022-10-04T00:12:55.836Z,47.46
2022-10-04T00:13:28.701Z,47.44
2022-10-04T00:14:05.139Z,47.18
2022-10-04T00:14:39.412Z,47.11
2022-10-04T00:15:22.974Z,47.45
2022-10-04T00:15:55.295Z,47.58
2022-10-04T00:16:32.129Z,47.42
2022-10-04T00:17:14.132Z,47.36
2022-10-04T00:18:00.158Z,47.44
2022-10-04T00:18:42.352Z,47.50
2022-10-04T00:19:42.435Z,47.20
2022-10-04T00:20:47.136Z,47.18
2022-10-04T00:21:19.813Z,47.30
2022-10-04T00:22:22.613Z,47.10
2022-10-04T00:23:25.198Z,47.26
2022-10-04T00:24:13.501Z,47.11
2022-10-04T00:25:02.214Z,47.44
2022-10-04T00:25:39.173Z,47.46
2022-10-04T00:26:16.357Z,47.53
2022-10-04T00:27:17.808Z,46.99
2022-10-04T00:28:20.303Z,47.38
2022-10-04T00:28:52.724Z,47.28
2022-10-04T00:29:31.370Z,47.51
2022-10-04T00:30:23.964Z,47.54
2022-10-04T00:31:20.615Z,47.49
2022-10-04T00:32:30.424Z,47.42
2022-10-04T00:33:05.238Z,47.44
2022-10-04T00:33:38.891Z,47.13
2022-10-04T00:34:47.657Z,47.11
2022-10-04T00:35:48.060Z,47.60
2022-10-04T00:36:51.798Z,47.37
2022-10-04T00:37:25.659Z,47.07
2022-10-04T00:37:58.911Z,46.96
2022-10-04T00:38:31.116Z,47.18
2022-10-04T00:39:21.628Z,47.14
2022-10-04T00:40:11.352Z,47.48
2022-10-04T00:40:49.862Z,47.08
2022-10-04T00:41:22.481Z,47.03
2022-10-04T00:42:00.042Z,47.03
2022-10-04T00:42:46.292Z,47.30
2022-10-04T00:43:20.325Z,47.32
2022-10-04T00:43:52.701Z,47.27
2022-10-04T00:44:36.565Z,47.30
2022-10-04T00:45:16.993Z,47.33
2022-10-04T00:45:55.251Z,47.18
2022-10-04T00:46:29.076Z,47.29
2022-10-04T00:47:03.089Z,47.25
2022-10-04T00:47:56.139Z,47.27
2022-10-04T00:48:51.998Z,47.15
2022-10-04T00:49:29.670Z,47.11
2022-10-04T00:50:07.796Z,47.37
2022-10-04T00:50:44.053Z,47.18
2022-10-04T00:51:25.779Z,47.36
2022-10-04T00:52:01.519Z,46.96
2022-10-04T00:52:35.887Z,47.46
2022-10-04T00:53:18.736Z,47.56
2022-10-04T00:54:02.015Z,47.20
2022-10-04T00:54:41.535Z,47.20
2022-10-04T00:55:22.352Z,47.15
2022-10-04T00:55:57.297Z,47.08
2022-10-04T00:56:37.448Z,47.18
2022-10-04T00:57:12.835Z,47.25
2022-10-04T00:57:48.449Z,47.59
2022-10-04T00:58:25.955Z,47.43
2022-10-04T00:59:29.581Z,47.61
2022-10-04T01:00:07.429Z,47.24
2022-10-04T01:00:40.830Z,47.55
2022-10-04T01:01:13.164Z,47.27
2022-10-04T01:01:48.486Z,47.39
2022-10-04T01:02:22.571Z,47.36
2022-10-04T01:03:02.004Z,47.41
2022-10-04T01:03:37.507Z,47.80
2022-10-04T01:04:21.953Z,47.73
2022-10-04T01:05:00.533Z,47.29
2022-10-04T01:05:34.867Z,47.25
2022-10-04T01:06:09.605Z,47.52
2022-10-04T01:06:46.382Z,47.49
2022-10-04T01:07:23.445Z,47.23
2022-10-04T01:08:00.676Z,47.44
2022-10-04T01:08:35.308Z,47.41
2022-10-04T01:09:08.991Z,47.15
2022-10-04T01:09:51.427Z,47.42
2022-10-04T01:10:27.583Z,47.23
2022-10-04T01:11:02.632Z,47.49
2022-10-04T01:11:37.301Z,47.37
2022-10-04T01:12:17.521Z,46.99
2022-10-04T01:12:52.609Z,47.28
2022-10-04T01:13:28.573Z,47.39
2022-10-04T01:14:07.732Z,47.06
2022-10-04T01:14:47.630Z,47.24
2022-10-04T01:15:26.888Z,47.41
2022-10-04T01:16:04.568Z,47.10
2022-10-04T01:16:38.286Z,47.49
2022-10-04T01:17:10.520Z,47.18
2022-10-04T01:18:18.295Z,47.21
2022-10-04T01:18:50.644Z,47.41
2022-10-04T01:19:31.406Z,47.13
2022-10-04T01:20:33.080Z,47.22
2022-10-04T01:21:07.821Z,47.54
2022-10-04T01:21:40.808Z,47.17
2022-10-04T01:22:18.115Z,47.27
2022-10-04T01:22:52.912Z,47.21
2022-10-04T01:23:42.676Z,47.47
2022-10-04T01:24:20.664Z,47.45
2022-10-04T01:24:52.841Z,47.37
2022-10-04T01:25:43.255Z,47.43
2022-10-04T01:26:40.478Z,47.47
2022-10-04T01:27:34.381Z,47.44
2022-10-04T01:28:06.672Z,47.37
2022-10-04T01:28:41.592Z,47.14
2022-10-04T01:29:16.016Z,47.54
2022-10-04T01:29:48.269Z,47.54
2022-10-04T01:30:23.123Z,47.35
2022-10-04T01:30:55.494Z,47.26
2022-10-04T01:31:28.373Z,47.32
2022-10-04T01:32:04.089Z,47.32
2022-10-04T01:32:37.997Z,47.46
2022-10-04T01:33:12.257Z,47.08
2022-10-04T01:33:47.068Z,47.42
2022-10-04T01:34:20.791Z,47.06
2022-10-04T01:34:53.011Z,47.36
2022-10-04T01:35:28.989Z,47.06
2022-10-04T01:36:01.570Z,47.07
2022-10-04T01:36:34.406Z,47.23
2022-10-04T01:37:09.320Z,47.42
2022-10-04T01:37:41.625Z,47.27
2022-10-04T01:38:16.430Z,47.08
2022-10-04T01:38:51.809Z,47.39
2022-10-04T01:39:25.536Z,47.33
2022-10-04T01:39:57.775Z,46.96
2022-10-04T01:40:34.333Z,47.35
2022-10-04T01:41:07.680Z,46.94
2022-10-04T01:41:54.176Z,46.99
2022-10-04T01:42:32.574Z,47.33
2022-10-04T01:43:07.592Z,47.27
2022-10-04T01:43:43.134Z,46.92
2022-10-04T01:44:26.143Z,47.27
2022-10-04T01:45:02.412Z,47.29
2022-10-04T01:45:39.629Z,47.14
2022-10-04T01:46:16.821Z,47.39
2022-10-04T01:46:50.438Z,47.25
2022-10-04T01:47:27.564Z,46.97
2022-10-04T01:48:05.052Z,47.27
2022-10-04T01:48:38.249Z,47.25
2022-10-04T01:49:14.559Z,47.22
2022-10-04T01:49:50.321Z,46.91
2022-10-04T01:50:27.860Z,47.38
2022-10-04T01:51:04.609Z,47.11
2022-10-04T01:51:42.558Z,47.01
2022-10-04T01:52:18.411Z,47.23
2022-10-04T01:52:54.059Z,47.16
2022-10-04T01:53:33.176Z,46.79
2022-10-04T01:54:07.899Z,46.96
2022-10-04T01:54:43.212Z,46.88
2022-10-04T01:55:21.928Z,47.11
2022-10-04T01:55:56.068Z,47.25
2022-10-04T01:56:31.968Z,47.29
2022-10-04T01:57:08.031Z,47.12
2022-10-04T01:57:46.336Z,47.07
2022-10-04T01:58:21.167Z,47.15
2022-10-04T01:58:58.677Z,46.83
2022-10-04T01:59:34.198Z,46.88
2022-10-04T02:00:09.322Z,47.16
2022-10-04T02:00:48.405Z,47.13
2022-10-04T02:01:26.811Z,47.10
2022-10-04T02:02:04.272Z,46.87
2022-10-04T02:02:42.845Z,46.96
2022-10-04T02:03:18.011Z,47.10
2022-10-04T02:03:54.937Z,47.00
2022-10-04T02:04:31.583Z,46.82
2022-10-04T02:05:07.309Z,46.84
2022-10-04T02:05:42.276Z,46.98
2022-10-04T02:06:18.416Z,46.70
2022-10-04T02:06:53.711Z,46.90
2022-10-04T02:07:29.486Z,47.13
2022-10-04T02:08:06.692Z,46.80
2022-10-04T02:08:47.164Z,46.80
2022-10-04T02:09:22.938Z,47.02
2022-10-04T02:10:00.141Z,47.27
2022-10-04T02:10:39.739Z,47.25
2022-10-04T02:11:19.309Z,46.84
2022-10-04T02:11:55.868Z,47.13
2022-10-04T02:12:28.929Z,46.87
2022-10-04T02:13:01.483Z,46.75
2022-10-04T02:13:38.696Z,46.74
2022-10-04T02:14:15.891Z,47.11
2022-10-04T02:14:52.776Z,46.98
2022-10-04T02:15:29.227Z,46.79
2022-10-04T02:16:03.019Z,46.95
2022-10-04T02:16:37.347Z,46.91
2022-10-04T02:17:12.499Z,46.97
2022-10-04T02:17:47.460Z,46.82
2022-10-04T02:18:20.927Z,47.04
2022-10-04T02:18:53.958Z,46.79
2022-10-04T02:19:31.356Z,47.04
2022-10-04T02:20:04.689Z,46.80
2022-10-04T02:20:39.516Z,46.85
2022-10-04T02:21:15.351Z,46.80
2022-10-04T02:21:48.643Z,46.78
2022-10-04T02:22:21.116Z,46.89
2022-10-04T02:22:59.542Z,46.61
2022-10-04T02:23:32.515Z,46.94
2022-10-04T02:24:07.896Z,47.03
2022-10-04T02:24:42.892Z,47.13
2022-10-04T02:25:18.781Z,46.79
2022-10-04T02:25:51.192Z,46.90
2022-10-04T02:26:26.721Z,46.65
2022-10-04T02:26:59.205Z,46.69
2022-10-04T02:27:32.629Z,46.97
2022-10-04T02:28:07.865Z,47.12
2022-10-04T02:28:40.265Z,46.77
2022-10-04T02:29:12.464Z,46.91
2022-10-04T02:29:47.357Z,47.17
2022-10-04T02:30:19.670Z,47.08
2022-10-04T02:31:07.599Z,47.06
2022-10-04T02:31:55.217Z,46.75
2022-10-04T02:32:42.638Z,46.67
2022-10-04T02:33:14.892Z,46.64
2022-10-04T02:33:52.160Z,46.92
2022-10-04T02:34:24.382Z,46.45
2022-10-04T02:34:56.973Z,46.66
2022-10-04T02:35:35.922Z,46.65
2022-10-04T02:36:09.526Z,46.57
2022-10-04T02:36:42.064Z,46.20
2022-10-04T02:37:15.392Z,46.32
2022-10-04T02:37:53.044Z,46.22
2022-10-04T02:38:29.004Z,46.47
2022-10-04T02:39:03.825Z,46.20
2022-10-04T02:39:45.613Z,46.47
2022-10-04T02:40:21.798Z,46.33
2022-10-04T02:41:00.570Z,47.14
2022-10-04T02:41:37.581Z,47.90
2022-10-04T02:42:13.460Z,47.23
2022-10-04T02:42:50.437Z,46.56
2022-10-04T02:43:30.427Z,46.54
2022-10-04T02:44:05.037Z,46.36
2022-10-04T02:44:41.802Z,45.57
2022-10-04T02:45:21.419Z,45.37
2022-10-04T02:45:56.548Z,44.96
2022-10-04T02:46:34.137Z,44.94
2022-10-04T02:47:08.968Z,44.65
2022-10-04T02:47:44.940Z,44.60
2022-10-04T02:48:31.750Z,43.88
2022-10-04T02:49:06.689Z,44.11
2022-10-04T02:49:42.009Z,43.73
2022-10-04T02:50:29.703Z,43.41
2022-10-04T02:51:08.497Z,43.57
2022-10-04T02:51:43.306Z,43.38
2022-10-04T02:52:23.749Z,43.18
2022-10-04T02:52:58.727Z,43.21
2022-10-04T02:53:35.464Z,43.11
2022-10-04T02:54:16.768Z,42.77
2022-10-04T02:54:56.685Z,42.70
2022-10-04T02:55:33.408Z,42.65
2022-10-04T02:56:06.005Z,42.53
2022-10-04T02:56:38.459Z,42.32
2022-10-04T02:57:19.385Z,42.59
2022-10-04T02:57:52.604Z,42.65
2022-10-04T02:58:26.305Z,42.63
2022-10-04T02:59:04.104Z,42.10
2022-10-04T02:59:39.893Z,42.36
2022-10-04T03:00:18.641Z,42.26
2022-10-04T03:01:00.793Z,42.43
2022-10-04T03:01:49.098Z,42.15
2022-10-04T03:02:30.161Z,42.06
2022-10-04T03:03:23.884Z,42.01
2022-10-04T03:03:57.904Z,42.16
2022-10-04T03:04:35.475Z,42.32
2022-10-04T03:05:09.732Z,42.05
2022-10-04T03:05:42.387Z,42.24
2022-10-04T03:06:20.111Z,41.79
2022-10-04T03:06:52.612Z,41.88
2022-10-04T03:07:25.627Z,41.92
2022-10-04T03:08:01.888Z,42.19
2022-10-04T03:08:37.992Z,41.95
2022-10-04T03:09:10.180Z,42.03
2022-10-04T03:09:44.999Z,41.90
2022-10-04T03:10:19.929Z,41.78
2022-10-04T03:10:52.176Z,41.90
2022-10-04T03:11:31.100Z,42.02
2022-10-04T03:12:04.465Z,42.04
2022-10-04T03:12:37.587Z,41.70
2022-10-04T03:13:12.736Z,41.71
2022-10-04T03:13:47.339Z,41.88
2022-10-04T03:14:25.070Z,41.99
2022-10-04T03:14:57.283Z,41.96
2022-10-04T03:15:29.645Z,41.62
2022-10-04T03:16:04.811Z,41.62
2022-10-04T03:16:39.013Z,41.84
2022-10-04T03:17:11.883Z,41.69
2022-10-04T03:17:47.113Z,41.94
2022-10-04T03:18:19.955Z,41.88
2022-10-04T03:18:54.032Z,41.65
2022-10-04T03:19:29.689Z,41.77
2022-10-04T03:20:02.136Z,41.35
2022-10-04T03:20:37.876Z,41.73
2022-10-04T03:21:15.021Z,41.32
2022-10-04T03:21:50.324Z,41.22
2022-10-04T03:22:23.439Z,41.33
2022-10-04T03:22:58.737Z,41.34
2022-10-04T03:23:31.508Z,41.27
2022-10-04T03:24:04.810Z,41.50
2022-10-04T03:24:42.768Z,41.51
2022-10-04T03:25:21.329Z,41.34
2022-10-04T03:25:56.430Z,41.62
2022-10-04T03:26:33.667Z,41.58
2022-10-04T03:27:07.668Z,41.42
2022-10-04T03:27:40.048Z,41.63
2022-10-04T03:28:15.036Z,41.17
2022-10-04T03:28:47.408Z,41.63
2022-10-04T03:29:19.939Z,41.63
2022-10-04T03:29:59.049Z,41.47
2022-10-04T03:30:31.990Z,41.31
2022-10-04T03:31:04.546Z,41.44
2022-10-04T03:31:41.490Z,41.63
2022-10-04T03:32:19.037Z,41.59
2022-10-04T03:32:51.351Z,41.31
2022-10-04T03:33:25.496Z,41.51
2022-10-04T03:34:01.050Z,41.46
2022-10-04T03:34:35.352Z,41.30
2022-10-04T03:35:21.045Z,41.52
2022-10-04T03:35:55.232Z,41.04
2022-10-04T03:36:30.317Z,41.46
2022-10-04T03:37:03.620Z,41.32
2022-10-04T03:37:37.569Z,41.25
2022-10-04T03:38:14.377Z,41.39
2022-10-04T03:38:47.536Z,41.25
2022-10-04T03:39:28.365Z,41.29
2022-10-04T03:40:04.723Z,41.58
2022-10-04T03:40:42.283Z,41.31
2022-10-04T03:41:15.096Z,41.13
2022-10-04T03:41:50.028Z,41.34
2022-10-04T03:42:23.636Z,41.17
2022-10-04T03:42:56.259Z,41.52
2022-10-04T03:43:34.305Z,41.29
2022-10-04T03:44:07.800Z,41.42
2022-10-04T03:44:40.045Z,41.18
2022-10-04T03:45:18.294Z,41.15
2022-10-04T03:45:50.998Z,40.99
2022-10-04T03:46:24.573Z,41.19
2022-10-04T03:46:59.438Z,41.17
2022-10-04T03:47:35.312Z,41.49
2022-10-04T03:48:08.644Z,41.39
2022-10-04T03:48:44.361Z,41.12
2022-10-04T03:49:21.345Z,40.94
2022-10-04T03:49:54.995Z,41.32
2022-10-04T03:50:29.348Z,41.39
2022-10-04T03:51:06.276Z,41.32
2022-10-04T03:51:39.014Z,40.50
2022-10-04T03:52:15.464Z,41.44
2022-10-04T03:52:54.134Z,40.52
2022-10-04T03:53:32.080Z,40.62
2022-10-04T03:54:07.229Z,40.71
2022-10-04T03:54:39.539Z,41.03
2022-10-04T03:55:12.984Z,41.99
2022-10-04T03:55:47.810Z,41.78
2022-10-04T03:56:26.203Z,41.65
2022-10-04T03:56:59.067Z,42.47
2022-10-04T03:57:31.642Z,43.31
2022-10-04T03:58:06.730Z,43.01
2022-10-04T03:58:39.141Z,42.77
2022-10-04T03:59:14.820Z,42.91
2022-10-04T03:59:49.760Z,42.29
2022-10-04T04:00:22.037Z,42.37
2022-10-04T04:01:10.327Z,41.25
2022-10-04T04:01:49.311Z,41.17
2022-10-04T04:02:30.103Z,41.37
2022-10-04T04:03:05.497Z,41.41
2022-10-04T04:03:49.122Z,41.87
2022-10-04T04:04:24.951Z,41.88
2022-10-04T04:05:08.334Z,42.43
2022-10-04T04:05:44.803Z,42.22
2022-10-04T04:06:18.474Z,42.77
2022-10-04T04:07:03.254Z,42.53
2022-10-04T04:07:38.669Z,43.12
2022-10-04T04:08:14.701Z,42.88
2022-10-04T04:08:52.088Z,42.82
2022-10-04T04:09:26.669Z,43.35
2022-10-04T04:10:07.118Z,43.47
2022-10-04T04:10:42.941Z,43.61
2022-10-04T04:11:22.791Z,43.33
2022-10-04T04:11:59.513Z,43.81
2022-10-04T04:12:38.203Z,43.82
2022-10-04T04:13:17.729Z,43.90
2022-10-04T04:13:57.005Z,44.00
2022-10-04T04:14:31.930Z,43.65
2022-10-04T04:15:07.294Z,44.05
2022-10-04T04:15:45.555Z,44.07
2022-10-04T04:16:22.471Z,44.23
2022-10-04T04:16:55.983Z,44.12
2022-10-04T04:17:36.092Z,44.25
2022-10-04T04:18:18.129Z,44.32
2022-10-04T04:18:50.837Z,43.96
2022-10-04T04:19:24.896Z,44.43
2022-10-04T04:20:06.917Z,44.07
2022-10-04T04:20:41.223Z,44.04
2022-10-04T04:21:18.741Z,44.24
2022-10-04T04:21:54.902Z,44.32
2022-10-04T04:22:31.398Z,44.43
2022-10-04T04:23:11.903Z,44.55
2022-10-04T04:23:48.826Z,44.36
2022-10-04T04:24:24.978Z,44.10
2022-10-04T04:24:58.810Z,44.15
2022-10-04T04:25:36.181Z,44.14
2022-10-04T04:26:26.019Z,44.29
2022-10-04T04:27:00.244Z,44.55
2022-10-04T04:27:38.372Z,44.16
2022-10-04T04:28:21.724Z,44.46
2022-10-04T04:28:58.728Z,44.63
2022-10-04T04:29:35.125Z,44.25
2022-10-04T04:30:09.096Z,44.42
2022-10-04T04:30:47.636Z,44.63
2022-10-04T04:31:22.603Z,44.10
2022-10-04T04:31:58.608Z,44.32
2022-10-04T04:32:38.300Z,44.31
2022-10-04T04:33:21.135Z,44.32
2022-10-04T04:34:00.773Z,44.75
2022-10-04T04:34:35.266Z,44.34
2022-10-04T04:35:21.483Z,44.41
2022-10-04T04:35:58.451Z,44.59
2022-10-04T04:36:32.237Z,44.82
2022-10-04T04:37:08.141Z,44.67
2022-10-04T04:37:40.354Z,44.79
2022-10-04T04:38:19.991Z,44.75
2022-10-04T04:39:07.329Z,44.47
2022-10-04T04:39:45.000Z,44.89
2022-10-04T04:40:21.184Z,44.53
2022-10-04T04:40:55.748Z,44.68
2022-10-04T04:41:35.507Z,44.57
2022-10-04T04:42:14.365Z,44.96
2022-10-04T04:42:47.188Z,44.85
2022-10-04T04:43:22.657Z,44.76
2022-10-04T04:43:54.859Z,44.68
2022-10-04T04:44:27.335Z,44.87
2022-10-04T04:45:04.077Z,44.94
2022-10-04T04:45:37.114Z,44.84
2022-10-04T04:46:26.714Z,44.75
2022-10-04T04:47:02.448Z,44.59
2022-10-04T04:47:37.443Z,45.12
2022-10-04T04:48:14.825Z,45.05
2022-10-04T04:48:51.941Z,44.81
2022-10-04T04:49:24.233Z,45.07
2022-10-04T04:49:58.674Z,44.97
2022-10-04T04:50:35.590Z,44.83
2022-10-04T04:51:07.925Z,44.88
2022-10-04T04:51:41.587Z,44.94
2022-10-04T04:52:19.169Z,44.94
2022-10-04T04:52:53.812Z,44.83
2022-10-04T04:53:30.964Z,44.69
2022-10-04T04:54:05.058Z,44.79
2022-10-04T04:54:38.950Z,44.97
2022-10-04T04:55:20.424Z,45.07
2022-10-04T04:56:03.989Z,44.90
2022-10-04T04:56:39.564Z,44.77
2022-10-04T04:57:18.395Z,44.71
2022-10-04T04:57:52.032Z,44.75
2022-10-04T04:58:26.388Z,44.81
2022-10-04T04:59:02.504Z,45.16
2022-10-04T04:59:34.756Z,45.21
2022-10-04T05:00:08.923Z,45.24
2022-10-04T05:00:43.929Z,44.87
2022-10-04T05:01:22.073Z,44.34
2022-10-04T05:01:54.518Z,44.53
2022-10-04T05:02:35.232Z,44.61
2022-10-04T05:03:18.120Z,44.62
2022-10-04T05:04:03.389Z,45.29
2022-10-04T05:04:36.436Z,45.08
2022-10-04T05:05:30.509Z,45.57
2022-10-04T05:06:04.942Z,45.44
2022-10-04T05:06:38.798Z,45.74
2022-10-04T05:07:21.225Z,45.97
2022-10-04T05:08:09.072Z,45.85
2022-10-04T05:08:51.372Z,45.92
2022-10-04T05:09:24.878Z,46.07
2022-10-04T05:09:57.060Z,46.07
2022-10-04T05:10:31.558Z,46.38
2022-10-04T05:11:08.771Z,45.97
2022-10-04T05:11:43.873Z,46.21
2022-10-04T05:12:21.196Z,46.29
2022-10-04T05:12:54.051Z,46.19
2022-10-04T05:13:30.515Z,46.43
2022-10-04T05:14:08.712Z,46.50
2022-10-04T05:14:47.044Z,46.60
2022-10-04T05:15:19.636Z,46.53
2022-10-04T05:15:56.601Z,46.42
2022-10-04T05:16:32.975Z,46.32
2022-10-04T05:17:06.155Z,46.41
2022-10-04T05:17:41.341Z,46.72
2022-10-04T05:18:27.116Z,46.31
2022-10-04T05:19:05.179Z,46.46
2022-10-04T05:19:38.236Z,46.85
2022-10-04T05:20:12.257Z,46.78
2022-10-04T05:20:51.043Z,46.69
2022-10-04T05:21:25.832Z,46.70
2022-10-04T05:22:02.376Z,46.78
2022-10-04T05:22:35.354Z,46.94
2022-10-04T05:23:11.940Z,46.65
2022-10-04T05:23:47.685Z,46.56
2022-10-04T05:24:24.209Z,46.62
2022-10-04T05:25:00.161Z,46.92
2022-10-04T05:25:36.816Z,46.72
2022-10-04T05:26:11.800Z,46.89
2022-10-04T05:26:53.210Z,46.77
2022-10-04T05:27:29.560Z,46.79
2022-10-04T05:28:02.536Z,47.35
2022-10-04T05:28:37.436Z,47.03
2022-10-04T05:29:15.461Z,46.95
2022-10-04T05:29:58.084Z,47.39
2022-10-04T05:30:42.180Z,47.14
2022-10-04T05:31:29.900Z,47.34
2022-10-04T05:32:11.931Z,47.06
2022-10-04T05:32:50.420Z,47.08
2022-10-04T05:33:25.413Z,46.88
2022-10-04T05:34:01.260Z,47.03
2022-10-04T05:34:39.505Z,47.32
2022-10-04T05:35:16.924Z,46.85
2022-10-04T05:36:05.243Z,47.21
2022-10-04T05:36:55.780Z,47.15
2022-10-04T05:37:50.813Z,46.93
2022-10-04T05:38:29.227Z,46.78
2022-10-04T05:39:06.264Z,46.84
2022-10-04T05:39:46.474Z,46.83
2022-10-04T05:40:34.224Z,47.20
2022-10-04T05:41:11.761Z,46.85
2022-10-04T05:41:52.124Z,47.00
2022-10-04T05:42:28.696Z,46.74
2022-10-04T05:43:03.966Z,47.08
2022-10-04T05:43:38.077Z,46.94
2022-10-04T05:44:26.632Z,46.80
2022-10-04T05:45:01.461Z,47.18
2022-10-04T05:45:33.681Z,46.82
2022-10-04T05:46:16.131Z,46.89
2022-10-04T05:46:51.052Z,46.79
2022-10-04T05:47:26.647Z,46.65
2022-10-04T05:48:03.715Z,47.00
2022-10-04T05:48:36.482Z,46.99
2022-10-04T05:49:15.537Z,47.10
2022-10-04T05:49:57.577Z,46.77
2022-10-04T05:50:32.301Z,47.03
2022-10-04T05:51:13.450Z,46.89
2022-10-04T05:51:53.321Z,47.00
2022-10-04T05:52:28.594Z,47.14
2022-10-04T05:53:24.465Z,46.72
2022-10-04T05:53:58.698Z,46.97
2022-10-04T05:54:34.267Z,47.12
2022-10-04T05:55:26.825Z,47.03
2022-10-04T05:56:07.650Z,46.82
2022-10-04T05:56:58.437Z,47.03
2022-10-04T05:57:42.165Z,47.20
2022-10-04T05:58:40.503Z,47.28
2022-10-04T05:59:26.244Z,47.06
2022-10-04T06:00:15.201Z,47.27
2022-10-04T06:01:13.314Z,47.11
2022-10-04T06:01:49.521Z,47.37
2022-10-04T06:02:34.366Z,47.20
2022-10-04T06:03:25.141Z,47.06
2022-10-04T06:04:38.578Z,46.90
2022-10-04T06:05:15.887Z,47.11
2022-10-04T06:05:53.901Z,47.01
2022-10-04T06:06:31.375Z,47.09
2022-10-04T06:07:12.928Z,47.41
2022-10-04T06:07:51.225Z,46.94
2022-10-04T06:08:34.632Z,46.99
2022-10-04T06:09:12.220Z,47.16
2022-10-04T06:10:26.179Z,46.96
2022-10-04T06:11:19.102Z,47.32
2022-10-04T06:12:04.563Z,47.13
2022-10-04T06:12:44.663Z,46.90
2022-10-04T06:13:26.433Z,47.32
2022-10-04T06:14:33.380Z,47.28
2022-10-04T06:15:23.650Z,47.44
2022-10-04T06:16:09.091Z,47.39
2022-10-04T06:16:56.983Z,47.24
2022-10-04T06:17:52.086Z,47.56
2022-10-04T06:18:34.726Z,47.51
2022-10-04T06:19:21.567Z,47.48
2022-10-04T06:20:17.553Z,47.37
2022-10-04T06:21:08.236Z,47.27
2022-10-04T06:21:59.390Z,47.67
2022-10-04T06:22:33.246Z,47.65
2022-10-04T06:23:15.168Z,47.67
2022-10-04T06:23:53.590Z,47.44
2022-10-04T06:24:30.729Z,47.40
2022-10-04T06:25:05.842Z,47.44
2022-10-04T06:25:40.413Z,47.47
2022-10-04T06:26:17.497Z,47.52
2022-10-04T06:26:52.977Z,47.06
2022-10-04T06:27:36.098Z,47.55
2022-10-04T06:28:16.643Z,47.13
2022-10-04T06:28:51.084Z,47.08
2022-10-04T06:29:28.226Z,47.38
2022-10-04T06:30:05.344Z,47.04
2022-10-04T06:30:51.693Z,47.36
2022-10-04T06:31:40.957Z,47.39
2022-10-04T06:32:27.142Z,47.30
2022-10-04T06:33:15.087Z,47.21
2022-10-04T06:34:03.097Z,47.44
2022-10-04T06:35:10.690Z,47.05
2022-10-04T06:36:03.632Z,47.51
2022-10-04T06:36:54.851Z,47.46
2022-10-04T06:37:49.144Z,47.22
2022-10-04T06:38:54.504Z,47.12
2022-10-04T06:39:43.268Z,47.12
2022-10-04T06:40:39.905Z,47.14
2022-10-04T06:41:20.747Z,47.41
2022-10-04T06:42:17.121Z,47.32
2022-10-04T06:43:02.524Z,47.08
2022-10-04T06:43:46.340Z,47.47
2022-10-04T06:44:38.368Z,47.25
2022-10-04T06:45:26.056Z,47.46
2022-10-04T06:46:10.405Z,47.64
2022-10-04T06:46:47.009Z,47.25
2022-10-04T06:47:28.975Z,47.60
2022-10-04T06:48:25.131Z,47.57
2022-10-04T06:49:17.605Z,47.40
2022-10-04T06:49:57.392Z,47.44
2022-10-04T06:50:37.044Z,47.42
2022-10-04T06:51:14.642Z,47.23
2022-10-04T06:52:04.008Z,47.30
2022-10-04T06:52:49.192Z,47.35
2022-10-04T06:53:29.274Z,47.63
2022-10-04T06:54:06.194Z,47.39
2022-10-04T06:55:14.852Z,47.73
2022-10-04T06:56:08.549Z,47.80
2022-10-04T06:56:58.779Z,47.59
2022-10-04T06:57:50.245Z,47.56
2022-10-04T06:58:57.812Z,48.05
2022-10-04T06:59:41.575Z,47.72
2022-10-04T07:00:20.116Z,48.00
2022-10-04T07:00:55.749Z,47.95
2022-10-04T07:01:32.541Z,47.90
2022-10-04T07:02:08.315Z,47.66
2022-10-04T07:02:44.465Z,48.00
2022-10-04T07:03:23.424Z,48.21
2022-10-04T07:03:59.729Z,48.01
2022-10-04T07:05:03.206Z,48.01
2022-10-04T07:05:36.034Z,48.25
2022-10-04T07:06:11.427Z,48.28
2022-10-04T07:06:48.688Z,48.38
2022-10-04T07:07:27.335Z,48.38
2022-10-04T07:08:11.528Z,48.59
2022-10-04T07:08:48.062Z,48.21
2022-10-04T07:09:23.600Z,48.44
2022-10-04T07:10:03.164Z,48.62
2022-10-04T07:10:45.742Z,48.27
2022-10-04T07:11:21.217Z,48.50
2022-10-04T07:11:59.003Z,48.55
2022-10-04T07:12:33.207Z,48.91
2022-10-04T07:13:13.351Z,48.52
2022-10-04T07:13:56.655Z,48.59
2022-10-04T07:14:31.264Z,48.77
2022-10-04T07:15:14.155Z,48.76
2022-10-04T07:15:55.381Z,49.07
2022-10-04T07:16:37.911Z,49.03
2022-10-04T07:17:15.415Z,48.74
2022-10-04T07:17:48.999Z,49.03
2022-10-04T07:18:24.352Z,49.15
2022-10-04T07:19:13.843Z,48.71
2022-10-04T07:19:47.416Z,48.96
2022-10-04T07:20:23.268Z,48.71
2022-10-04T07:21:05.586Z,48.72
2022-10-04T07:21:46.220Z,48.75
2022-10-04T07:22:25.692Z,49.02
2022-10-04T07:23:00.119Z,48.95
2022-10-04T07:23:35.033Z,48.96
2022-10-04T07:24:12.988Z,48.60
2022-10-04T07:24:52.277Z,48.63
2022-10-04T07:25:30.689Z,48.96
2022-10-04T07:26:06.844Z,48.73
2022-10-04T07:26:45.584Z,49.05
2022-10-04T07:27:24.573Z,48.84
2022-10-04T07:28:15.092Z,49.05
2022-10-04T07:29:03.058Z,49.05
2022-10-04T07:29:41.911Z,48.88
2022-10-04T07:30:20.201Z,48.96
2022-10-04T07:30:58.657Z,49.29
2022-10-04T07:31:34.228Z,49.00
2022-10-04T07:32:14.232Z,49.38
2022-10-04T07:32:48.148Z,49.18
2022-10-04T07:33:23.521Z,49.15
2022-10-04T07:34:01.154Z,49.33
2022-10-04T07:34:36.619Z,49.03
2022-10-04T07:35:19.563Z,49.26
2022-10-04T07:35:55.060Z,49.53
2022-10-04T07:36:29.448Z,49.18
2022-10-04T07:37:10.675Z,49.40
2022-10-04T07:37:49.934Z,49.20
2022-10-04T07:38:26.868Z,49.60
2022-10-04T07:39:06.552Z,49.34
2022-10-04T07:39:44.882Z,49.52
2022-10-04T07:40:22.973Z,49.32
2022-10-04T07:41:10.065Z,49.56
2022-10-04T07:41:46.777Z,49.30
2022-10-04T07:42:31.927Z,49.25
2022-10-04T07:43:06.823Z,49.17
2022-10-04T07:43:48.144Z,49.61
2022-10-04T07:44:29.584Z,49.55
2022-10-04T07:45:12.414Z,49.34
2022-10-04T07:45:50.285Z,49.22
2022-10-04T07:46:40.534Z,49.65
2022-10-04T07:47:21.980Z,49.45
2022-10-04T07:48:03.060Z,49.65
2022-10-04T07:48:40.824Z,49.21
2022-10-04T07:49:17.190Z,49.67
2022-10-04T07:49:50.654Z,49.61
2022-10-04T07:50:27.717Z,49.58
2022-10-04T07:51:10.129Z,49.15
2022-10-04T07:51:53.367Z,49.57
2022-10-04T07:52:48.288Z,49.36
2022-10-04T07:53:24.951Z,49.57
2022-10-04T07:54:02.221Z,49.30
2022-10-04T07:54:42.110Z,49.64
2022-10-04T07:55:22.279Z,49.47
2022-10-04T07:56:00.144Z,49.65
2022-10-04T07:56:37.868Z,49.46
2022-10-04T07:57:20.087Z,49.44
2022-10-04T07:58:03.209Z,49.55
2022-10-04T07:58:46.671Z,49.33
2022-10-04T07:59:33.124Z,49.39
2022-10-04T08:00:14.224Z,49.38
2022-10-04T08:00:54.024Z,49.66
2022-10-04T08:01:33.989Z,49.51
2022-10-04T08:02:17.039Z,49.36
2022-10-04T08:03:05.894Z,49.45
2022-10-04T08:03:58.720Z,49.53
2022-10-04T08:04:42.062Z,49.34
2022-10-04T08:05:21.653Z,49.36
2022-10-04T08:06:00.610Z,49.41
2022-10-04T08:06:39.416Z,49.31
2022-10-04T08:07:17.656Z,49.63
2022-10-04T08:08:36.685Z,49.50
2022-10-04T08:09:24.080Z,49.34
2022-10-04T08:10:03.670Z,49.10
2022-10-04T08:10:40.528Z,49.25
2022-10-04T08:11:19.694Z,49.40
2022-10-04T08:12:03.663Z,49.22
2022-10-04T08:12:45.972Z,49.48
2022-10-04T08:13:26.073Z,49.53
2022-10-04T08:14:05.340Z,49.57
2022-10-04T08:14:53.233Z,49.54
2022-10-04T08:15:34.227Z,49.62
2022-10-04T08:16:20.323Z,49.31
2022-10-04T08:17:02.496Z,49.31
2022-10-04T08:17:48.081Z,49.31
2022-10-04T08:18:29.761Z,49.33
2022-10-04T08:19:21.245Z,49.25
2022-10-04T08:19:59.408Z,49.31
2022-10-04T08:20:41.805Z,49.51
2022-10-04T08:21:16.895Z,49.39
2022-10-04T08:21:56.337Z,49.44
2022-10-04T08:22:40.105Z,49.65
2022-10-04T08:23:24.607Z,49.67
2022-10-04T08:24:10.656Z,49.42